Time;durP1;ratioP1;P1;durP2;ratioP2;P2;SDS_P1;SDS_P2;PMS_P1;PMS_P2;Temp;Humidity;BMP_temperature;BMP_pressure;BME280_temperature;BME280_humidity;BME280_pressure;Samples;Min_cycle;Max_cycle;Signal;HPM_P1;HPM_P2
2023/11/26 00:01:40;;;;;;;34.92;10.10;;;6.60;99.90;;;;;;7382708;19;20003;-74
2023/11/26 00:04:11;;;;;;;30.85;11.55;;;6.60;99.90;;;;;;7380938;19;20390;-74
2023/11/26 00:06:45;;;;;;;24.67;10.75;;;6.60;99.90;;;;;;7405113;19;20014;-74
2023/11/26 00:09:13;;;;;;;22.75;10.50;;;6.50;99.90;;;;;;7385213;19;20006;-75
2023/11/26 00:11:42;;;;;;;24.85;10.82;;;6.60;99.90;;;;;;7389123;19;20046;-76
2023/11/26 00:14:11;;;;;;;24.98;10.57;;;6.50;99.90;;;;;;7390156;19;20011;-75
2023/11/26 00:16:44;;;;;;;31.95;13.27;;;6.50;99.90;;;;;;7390712;19;20006;-75
2023/11/26 00:19:13;;;;;;;34.03;14.65;;;6.50;99.90;;;;;;7387363;19;20370;-75
2023/11/26 00:21:43;;;;;;;29.10;13.05;;;6.50;99.90;;;;;;7412414;19;20007;-75
2023/11/26 00:24:11;;;;;;;32.42;14.70;;;6.50;99.90;;;;;;7389971;19;20027;-74
2023/11/26 00:26:40;;;;;;;38.30;15.02;;;6.50;99.90;;;;;;7389320;19;20020;-73
2023/11/26 00:29:10;;;;;;;33.60;14.57;;;6.50;99.90;;;;;;7388928;19;20010;-74
2023/11/26 00:31:41;;;;;;;37.15;14.75;;;6.50;99.90;;;;;;7390112;19;20100;-74
2023/11/26 00:34:10;;;;;;;28.33;12.70;;;6.40;99.90;;;;;;7390215;19;20020;-74
2023/11/26 00:36:39;;;;;;;30.75;13.07;;;6.40;99.90;;;;;;7412246;19;20035;-76
2023/11/26 00:39:08;;;;;;;37.05;14.95;;;6.40;99.90;;;;;;7387699;19;20014;-75
2023/11/26 00:41:37;;;;;;;37.33;13.13;;;6.30;99.90;;;;;;7394268;19;20010;-75
2023/11/26 00:44:06;;;;;;;38.35;13.45;;;6.30;99.90;;;;;;7396267;19;20007;-74
2023/11/26 00:46:35;;;;;;;29.08;12.60;;;6.30;99.90;;;;;;7395496;19;20010;-74
2023/11/26 00:49:06;;;;;;;32.40;12.85;;;6.30;99.90;;;;;;7394541;19;20079;-74
2023/11/26 00:51:35;;;;;;;24.05;11.43;;;6.20;99.90;;;;;;7411360;19;20017;-74
2023/11/26 00:54:05;;;;;;;27.20;11.85;;;6.30;99.90;;;;;;7387741;19;20011;-74
2023/11/26 00:56:34;;;;;;;25.17;11.38;;;6.30;99.90;;;;;;7387961;19;20094;-74
2023/11/26 00:59:03;;;;;;;28.80;10.60;;;6.30;99.90;;;;;;7388001;19;20010;-74
2023/11/26 01:01:32;;;;;;;33.88;11.25;;;6.30;99.90;;;;;;7388259;19;20058;-74
2023/11/26 01:04:01;;;;;;;23.63;10.82;;;6.40;99.90;;;;;;7392466;19;20011;-74
2023/11/26 01:06:32;;;;;;;29.13;11.65;;;6.40;99.90;;;;;;7410923;19;20162;-74
2023/11/26 01:09:01;;;;;;;26.08;11.45;;;6.30;99.90;;;;;;7381574;19;20019;-74
2023/11/26 01:11:30;;;;;;;30.58;12.43;;;6.30;99.90;;;;;;7382618;19;20016;-75
2023/11/26 01:13:58;;;;;;;24.67;11.45;;;6.30;99.90;;;;;;7382689;19;20067;-74
2023/11/26 01:16:27;;;;;;;35.97;13.23;;;6.30;99.90;;;;;;7380907;19;20007;-74
2023/11/26 01:18:56;;;;;;;25.65;10.93;;;6.30;99.90;;;;;;7381129;19;20070;-74
2023/11/26 01:21:24;;;;;;;27.55;10.70;;;6.30;99.90;;;;;;7399929;19;20013;-74
2023/11/26 01:23:55;;;;;;;42.88;12.70;;;6.20;99.90;;;;;;7379252;19;20074;-74
2023/11/26 01:26:24;;;;;;;;;;;6.20;99.90;;;;;;7382141;19;20007;-74
2023/11/26 01:28:58;;;;;;;23.80;10.52;;;6.20;99.90;;;;;;7380011;19;19970;-74
2023/11/26 01:31:27;;;;;;;27.30;11.27;;;6.20;99.90;;;;;;7381341;19;20016;-74
2023/11/26 01:33:55;;;;;;;42.85;12.48;;;6.10;99.90;;;;;;7381142;19;20006;-74
2023/11/26 01:36:24;;;;;;;26.45;10.23;;;6.10;99.90;;;;;;7402709;19;20267;-75
2023/11/26 01:38:55;;;;;;;32.10;11.48;;;6.10;99.90;;;;;;7378857;19;20693;-74
2023/11/26 01:41:24;;;;;;;27.30;11.35;;;6.10;99.90;;;;;;7381821;19;20019;-75
2023/11/26 01:43:53;;;;;;;28.90;11.10;;;6.10;99.90;;;;;;7382111;19;20013;-74
2023/11/26 01:46:23;;;;;;;22.35;10.77;;;6.10;99.90;;;;;;7384231;19;20388;-74
2023/11/26 01:48:53;;;;;;;29.35;11.27;;;6.10;99.90;;;;;;7381851;19;20023;-74
2023/11/26 01:51:24;;;;;;;24.17;10.82;;;6.00;99.90;;;;;;7403173;19;20086;-74
2023/11/26 01:53:58;;;;;;;28.45;11.40;;;6.00;99.90;;;;;;7381101;19;20417;-74
2023/11/26 01:56:27;;;;;;;35.53;11.43;;;6.00;99.90;;;;;;7381243;19;20110;-75
2023/11/26 01:58:58;;;;;;;24.88;9.68;;;6.00;99.90;;;;;;7380913;19;20011;-74
2023/11/26 02:01:27;;;;;;;19.83;9.88;;;6.00;99.90;;;;;;7381207;19;20056;-74
2023/11/26 02:03:56;;;;;;;30.88;9.68;;;6.00;99.90;;;;;;7380854;19;20422;-73
2023/11/26 02:06:25;;;;;;;24.30;9.48;;;6.00;99.90;;;;;;7402438;19;20006;-74
2023/11/26 02:08:57;;;;;;;24.27;10.23;;;6.00;99.90;;;;;;7377934;19;20285;-74
2023/11/26 02:11:25;;;;;;;;;;;5.90;99.90;;;;;;7381899;19;20236;-74
2023/11/26 02:13:56;;;;;;;20.15;10.63;;;6.00;99.90;;;;;;7380821;19;19907;-74
2023/11/26 02:16:25;;;;;;;27.40;10.50;;;6.00;99.90;;;;;;7381185;19;20007;-74
2023/11/26 02:18:53;;;;;;;26.63;10.38;;;6.00;99.90;;;;;;7378459;19;20011;-73
2023/11/26 02:21:22;;;;;;;25.77;10.55;;;5.90;99.90;;;;;;7402058;19;20015;-74
2023/11/26 02:23:51;;;;;;;23.02;10.38;;;6.00;99.90;;;;;;7379617;19;20007;-74
2023/11/26 02:26:22;;;;;;;29.73;10.40;;;5.90;99.90;;;;;;7379062;19;20036;-73
2023/11/26 02:28:51;;;;;;;27.30;9.32;;;5.90;99.90;;;;;;7380491;19;20766;-74
2023/11/26 02:31:19;;;;;;;17.58;8.80;;;5.90;99.90;;;;;;7378042;19;20015;-74
2023/11/26 02:33:48;;;;;;;18.75;8.10;;;5.90;99.90;;;;;;7401698;19;20096;-74
2023/11/26 02:36:18;;;;;;;22.17;10.27;;;5.90;99.90;;;;;;7379839;19;20007;-75
2023/11/26 02:38:47;;;;;;;20.85;10.25;;;5.90;99.90;;;;;;7378983;19;20003;-75
2023/11/26 02:41:15;;;;;;;24.55;9.45;;;5.90;99.90;;;;;;7381251;19;20058;-75
2023/11/26 02:43:47;;;;;;;23.02;9.80;;;5.90;99.90;;;;;;7380077;19;20054;-75
2023/11/26 02:46:16;;;;;;;;;;;5.90;99.90;;;;;;7381099;19;20023;-75
2023/11/26 02:48:45;;;;;;;15.35;7.90;;;6.00;99.90;;;;;;7408796;19;19932;-75
2023/11/26 02:51:15;;;;;;;30.65;8.63;;;5.90;99.90;;;;;;7387556;19;20011;-75
2023/11/26 02:53:43;;;;;;;21.20;8.25;;;5.90;99.90;;;;;;7387360;19;20023;-75
2023/11/26 02:56:15;;;;;;;20.60;8.32;;;5.90;99.90;;;;;;7387825;19;20006;-75
2023/11/26 02:58:48;;;;;;;13.95;8.18;;;5.80;99.90;;;;;;7384113;19;20074;-74
2023/11/26 03:01:21;;;;;;;16.13;7.47;;;5.90;99.90;;;;;;7380999;19;20013;-74
2023/11/26 03:03:50;;;;;;;25.67;9.32;;;5.80;99.90;;;;;;7380799;19;20007;-74
2023/11/26 03:06:22;;;;;;;19.55;8.40;;;5.80;99.90;;;;;;7398873;19;20039;-74
2023/11/26 03:08:59;;;;;;;18.63;7.55;;;5.70;99.90;;;;;;7377941;19;20717;-74
2023/11/26 03:14:13;;;;;;;;;;;5.70;99.90;;;;;;7379717;19;20011;-74
2023/11/26 03:16:44;;;;;;;17.15;7.10;;;5.70;99.90;;;;;;7378612;19;19982;-74
2023/11/26 03:19:14;;;;;;;27.50;7.53;;;5.70;99.90;;;;;;7378419;19;20422;-74
2023/11/26 03:21:47;;;;;;;21.25;7.38;;;5.70;99.90;;;;;;7400383;19;20007;-74
2023/11/26 03:24:17;;;;;;;11.68;6.57;;;5.60;99.90;;;;;;7378102;19;20070;-73
2023/11/26 03:26:46;;;;;;;15.63;6.93;;;5.60;99.90;;;;;;7377473;19;20461;-73
2023/11/26 03:29:17;;;;;;;24.60;7.03;;;5.50;99.90;;;;;;7378372;19;20080;-73
2023/11/26 03:31:47;;;;;;;16.83;7.20;;;5.50;99.90;;;;;;7378857;19;20085;-74
2023/11/26 03:34:15;;;;;;;15.90;7.25;;;5.40;99.90;;;;;;7378593;19;20007;-74
2023/11/26 03:36:44;;;;;;;13.52;5.75;;;5.40;99.90;;;;;;7397921;19;20009;-74
2023/11/26 03:39:13;;;;;;;16.20;6.30;;;5.40;99.90;;;;;;7381685;19;20027;-74
2023/11/26 03:41:42;;;;;;;23.98;7.07;;;5.40;99.90;;;;;;7377539;19;20010;-75
2023/11/26 03:44:10;;;;;;;79.00;11.38;;;5.30;99.90;;;;;;7380507;19;20006;-74
2023/11/26 03:46:43;;;;;;;15.90;7.40;;;5.30;99.90;;;;;;7385084;19;20067;-75
2023/11/26 03:49:12;;;;;;;12.57;6.80;;;5.30;99.90;;;;;;7385470;19;20006;-75
2023/11/26 03:51:41;;;;;;;14.35;6.50;;;5.20;99.90;;;;;;7407371;19;20063;-75
2023/11/26 03:54:10;;;;;;;22.88;8.05;;;5.20;99.90;;;;;;7384125;19;20010;-75
2023/11/26 03:56:39;;;;;;;35.33;8.65;;;5.20;99.90;;;;;;7383967;19;20019;-75
2023/11/26 03:59:07;;;;;;;14.00;5.97;;;5.20;99.90;;;;;;7384359;19;20266;-75
2023/11/26 04:01:36;;;;;;;14.00;5.07;;;5.20;99.90;;;;;;7384107;19;20019;-75
2023/11/26 04:04:08;;;;;;;18.73;6.45;;;5.20;99.90;;;;;;7385838;19;20023;-75
2023/11/26 04:06:37;;;;;;;17.02;6.90;;;5.30;99.90;;;;;;7406889;19;20006;-74
2023/11/26 04:09:06;;;;;;;14.23;5.90;;;5.20;99.90;;;;;;7384423;19;20030;-74
2023/11/26 04:11:35;;;;;;;29.45;6.90;;;5.20;99.90;;;;;;7384427;19;20078;-74
2023/11/26 04:14:04;;;;;;;19.23;7.68;;;5.20;99.90;;;;;;7384742;19;20006;-74
2023/11/26 04:16:32;;;;;;;15.23;7.25;;;5.20;99.90;;;;;;7384258;19;20418;-73
2023/11/26 04:19:01;;;;;;;15.75;6.22;;;5.20;99.90;;;;;;7383642;19;20066;-74
2023/11/26 04:21:32;;;;;;;29.23;6.60;;;5.20;99.90;;;;;;7405814;19;20653;-75
2023/11/26 04:24:01;;;;;;;14.90;6.07;;;5.20;99.90;;;;;;7383872;19;20026;-73
2023/11/26 04:26:30;;;;;;;15.48;6.30;;;5.20;99.90;;;;;;7383870;19;20014;-74
2023/11/26 04:28:58;;;;;;;13.23;7.03;;;5.30;99.90;;;;;;7384340;19;20006;-74
2023/11/26 04:31:27;;;;;;;11.55;6.55;;;5.30;99.90;;;;;;7383873;19;20010;-74
2023/11/26 04:33:56;;;;;;;17.27;7.28;;;5.30;99.90;;;;;;7385445;19;20010;-73
2023/11/26 04:36:24;;;;;;;16.88;6.20;;;5.30;99.90;;;;;;7405835;19;20023;-74
2023/11/26 04:38:56;;;;;;;22.17;6.15;;;5.30;99.90;;;;;;7383462;19;20019;-74
2023/11/26 04:41:26;;;;;;;21.65;5.53;;;5.20;99.90;;;;;;7382428;19;20353;-74
2023/11/26 04:43:55;;;;;;;14.32;4.63;;;5.20;99.90;;;;;;7382847;19;20003;-74
2023/11/26 04:46:23;;;;;;;17.85;5.63;;;5.20;99.90;;;;;;7383567;19;20025;-73
2023/11/26 04:48:52;;;;;;;17.85;4.88;;;5.30;99.90;;;;;;7380592;19;20480;-74
2023/11/26 04:51:18;;;;;;;12.27;5.72;;;5.30;99.90;;;;;;7404834;19;20007;-74
2023/11/26 04:53:48;;;;;;;14.48;6.55;;;5.20;99.90;;;;;;7385339;19;20086;-74
2023/11/26 04:56:20;;;;;;;18.58;6.63;;;5.30;99.90;;;;;;7390393;19;20006;-74
2023/11/26 04:58:49;;;;;;;9.93;5.45;;;5.20;99.90;;;;;;7391660;19;20008;-74
2023/11/26 05:01:18;;;;;;;15.38;6.13;;;5.20;99.90;;;;;;7391562;19;20006;-74
2023/11/26 05:03:47;;;;;;;13.40;6.03;;;5.30;99.90;;;;;;7414302;19;20017;-74
2023/11/26 05:06:16;;;;;;;14.10;6.18;;;5.30;99.90;;;;;;7384838;19;20009;-74
2023/11/26 05:08:45;;;;;;;11.52;5.63;;;5.30;99.90;;;;;;7382113;19;20299;-74
2023/11/26 05:11:20;;;;;;;13.77;6.40;;;5.30;99.90;;;;;;7382131;19;20017;-73
2023/11/26 05:13:49;;;;;;;15.27;6.50;;;5.30;99.90;;;;;;7382723;19;20009;-73
2023/11/26 05:16:19;;;;;;;14.43;6.78;;;5.30;99.90;;;;;;7382618;19;20009;-74
2023/11/26 05:18:48;;;;;;;12.57;6.15;;;5.30;99.90;;;;;;7404159;19;20015;-74
2023/11/26 05:21:17;;;;;;;12.20;5.15;;;5.30;99.90;;;;;;7379872;19;20062;-74
2023/11/26 05:23:45;;;;;;;10.43;5.40;;;5.20;99.90;;;;;;7381735;19;20007;-74
2023/11/26 05:26:15;;;;;;;14.50;5.70;;;5.20;99.90;;;;;;7381636;19;20010;-74
2023/11/26 05:28:47;;;;;;;21.88;5.55;;;5.20;99.90;;;;;;7379628;19;20075;-74
2023/11/26 05:31:15;;;;;;;11.15;5.38;;;5.10;99.90;;;;;;7382518;19;20370;-74
2023/11/26 05:33:44;;;;;;;10.23;5.43;;;5.20;99.90;;;;;;7401092;19;20006;-74
2023/11/26 05:36:13;;;;;;;15.30;5.82;;;5.20;99.90;;;;;;7380074;19;20010;-74
2023/11/26 05:38:43;;;;;;;13.35;4.97;;;5.20;99.90;;;;;;7380298;19;20006;-74
2023/11/26 05:41:12;;;;;;;12.90;5.93;;;5.20;99.90;;;;;;7380499;19;20013;-74
2023/11/26 05:43:40;;;;;;;12.18;6.18;;;5.20;99.90;;;;;;7381308;19;20006;-74
2023/11/26 05:46:12;;;;;;;12.75;6.20;;;5.20;99.90;;;;;;7379537;19;20081;-73
2023/11/26 05:48:42;;;;;;;13.40;6.50;;;5.20;99.90;;;;;;7402601;19;20054;-74
2023/11/26 05:51:11;;;;;;;16.20;6.97;;;5.20;99.90;;;;;;7380177;19;20055;-74
2023/11/26 05:53:40;;;;;;;25.75;6.30;;;5.20;99.90;;;;;;7378299;19;20428;-74
2023/11/26 05:56:09;;;;;;;15.85;7.32;;;5.20;99.90;;;;;;7381084;19;20025;-74
2023/11/26 05:58:38;;;;;;;14.82;6.13;;;5.20;99.90;;;;;;7381178;19;20118;-74
2023/11/26 06:01:07;;;;;;;21.63;7.18;;;5.20;99.90;;;;;;7379797;19;20010;-74
2023/11/26 06:03:39;;;;;;;14.95;6.55;;;5.20;99.90;;;;;;7402497;19;20086;-74
2023/11/26 06:06:08;;;;;;;13.32;6.18;;;5.30;99.90;;;;;;7379786;19;20018;-73
2023/11/26 06:08:37;;;;;;;14.43;6.63;;;5.30;99.90;;;;;;7379758;19;20097;-75
2023/11/26 06:11:06;;;;;;;18.23;6.28;;;5.30;99.90;;;;;;7380935;19;20007;-74
2023/11/26 06:13:35;;;;;;;15.07;5.97;;;5.30;99.90;;;;;;7379418;19;20006;-74
2023/11/26 06:16:04;;;;;;;15.93;5.75;;;5.30;99.90;;;;;;7380769;19;20066;-74
2023/11/26 06:18:32;;;;;;;19.67;7.28;;;5.30;99.90;;;;;;7401093;19;20272;-73
2023/11/26 06:21:03;;;;;;;18.17;6.35;;;5.30;99.90;;;;;;7378301;19;20126;-73
2023/11/26 06:23:32;;;;;;;14.32;6.32;;;5.20;99.90;;;;;;7379400;19;20305;-74
2023/11/26 06:26:01;;;;;;;13.85;5.95;;;5.30;99.90;;;;;;7379407;19;20349;-73
2023/11/26 06:28:30;;;;;;;15.65;6.78;;;5.30;99.90;;;;;;7380018;19;20010;-74
2023/11/26 06:30:58;;;;;;;21.77;6.00;;;5.30;99.90;;;;;;7379969;19;20085;-73
2023/11/26 06:33:27;;;;;;;14.85;7.15;;;5.30;99.90;;;;;;7401035;19;20024;-74
2023/11/26 06:35:55;;;;;;;15.43;6.18;;;5.30;99.90;;;;;;7379370;19;20006;-73
2023/11/26 06:38:27;;;;;;;17.98;6.10;;;5.30;99.90;;;;;;7379441;19;20015;-74
2023/11/26 06:40:55;;;;;;;;;;;5.20;99.90;;;;;;7379741;19;20252;-74
2023/11/26 06:43:25;;;;;;;10.27;5.22;;;5.20;99.90;;;;;;7379213;19;19902;-75
2023/11/26 06:45:54;;;;;;;31.08;12.38;;;5.10;99.90;;;;;;7378650;19;20263;-73
2023/11/26 06:48:22;;;;;;;33.30;12.05;;;5.10;99.90;;;;;;7399049;19;20078;-74
2023/11/26 06:50:51;;;;;;;20.60;6.95;;;5.10;99.90;;;;;;7379579;19;20038;-74
2023/11/26 06:53:20;;;;;;;11.38;5.40;;;5.10;99.90;;;;;;7379109;19;20224;-73
2023/11/26 06:55:51;;;;;;;15.60;6.72;;;5.10;99.90;;;;;;7379705;19;20019;-73
2023/11/26 06:58:19;;;;;;;17.98;6.03;;;5.10;99.90;;;;;;7379821;19;20007;-74
2023/11/26 07:00:48;;;;;;;9.07;6.00;;;5.00;99.90;;;;;;7402552;19;20014;-74
2023/11/26 07:03:17;;;;;;;16.75;6.60;;;5.00;99.90;;;;;;7380318;19;20075;-73
2023/11/26 07:05:48;;;;;;;15.02;6.05;;;5.00;99.90;;;;;;7382575;19;20071;-74
2023/11/26 07:08:17;;;;;;;15.20;6.93;;;5.00;99.90;;;;;;7383259;19;20010;-74
2023/11/26 07:10:45;;;;;;;11.32;5.72;;;5.00;99.90;;;;;;7381462;19;20080;-73
2023/11/26 07:13:17;;;;;;;14.32;6.25;;;5.10;99.90;;;;;;7379777;19;20003;-73
2023/11/26 07:15:46;;;;;;;17.85;5.95;;;5.10;99.90;;;;;;7398263;19;20017;-74
2023/11/26 07:18:15;;;;;;;36.15;6.10;;;5.10;99.90;;;;;;7375575;19;20006;-73
2023/11/26 07:20:43;;;;;;;10.07;5.57;;;5.10;99.90;;;;;;7375714;19;20023;-74
2023/11/26 07:23:12;;;;;;;23.75;6.07;;;5.10;99.90;;;;;;7380672;19;20024;-75
2023/11/26 07:25:41;;;;;;;13.00;5.88;;;5.10;99.90;;;;;;7378244;19;20380;-75
2023/11/26 07:28:11;;;;;;;15.50;6.75;;;5.10;99.90;;;;;;7377887;19;19999;-73
2023/11/26 07:30:44;;;;;;;12.93;6.70;;;5.10;99.90;;;;;;7399723;19;20010;-74
2023/11/26 07:33:13;;;;;;;14.10;6.20;;;5.10;99.90;;;;;;7377554;19;20009;-73
2023/11/26 07:35:42;;;;;;;15.85;7.82;;;5.10;99.90;;;;;;7377831;19;20002;-74
2023/11/26 07:38:11;;;;;;;19.67;6.80;;;5.10;99.90;;;;;;7378367;19;20015;-74
2023/11/26 07:40:39;;;;;;;13.93;6.18;;;5.10;99.90;;;;;;7377466;19;20010;-74
2023/11/26 07:43:08;;;;;;;15.65;7.38;;;5.10;99.90;;;;;;7377195;19;20007;-75
2023/11/26 07:45:37;;;;;;;11.57;6.03;;;5.10;99.90;;;;;;7398576;19;20103;-73
2023/11/26 07:48:08;;;;;;;16.38;7.68;;;5.10;99.90;;;;;;7375093;19;20015;-73
2023/11/26 07:50:37;;;;;;;;;;;5.10;99.90;;;;;;7377386;19;20003;-75
2023/11/26 07:53:05;;;;;;;12.25;6.30;;;5.10;99.90;;;;;;7376464;19;20175;-75
2023/11/26 07:55:36;;;;;;;17.35;7.53;;;5.10;99.90;;;;;;7377059;19;20019;-75
2023/11/26 07:58:05;;;;;;;16.47;8.30;;;5.10;99.90;;;;;;7375963;19;20034;-73
2023/11/26 08:00:34;;;;;;;23.25;7.38;;;5.10;99.90;;;;;;7395151;19;20532;-74
2023/11/26 08:03:03;;;;;;;21.08;9.48;;;5.10;99.90;;;;;;7375740;19;20006;-74
2023/11/26 08:05:37;;;;;;;17.48;7.88;;;5.20;99.90;;;;;;7377064;19;20002;-74
2023/11/26 08:08:06;;;;;;;24.42;8.20;;;5.20;99.90;;;;;;7377061;19;20070;-74
2023/11/26 08:10:35;;;;;;;24.13;8.45;;;5.20;99.90;;;;;;7377403;19;20003;-74
2023/11/26 08:13:06;;;;;;;21.73;7.38;;;5.20;99.90;;;;;;7376794;19;20564;-74
2023/11/26 08:15:34;;;;;;;18.65;7.22;;;5.30;99.90;;;;;;7398381;19;20017;-74
2023/11/26 08:18:05;;;;;;;16.13;6.90;;;5.40;99.90;;;;;;7376638;19;20397;-74
2023/11/26 08:20:37;;;;;;;15.48;7.30;;;5.40;99.90;;;;;;7377284;19;20002;-74
2023/11/26 08:23:06;;;;;;;19.85;7.78;;;5.40;99.90;;;;;;7377048;19;20090;-74
2023/11/26 08:25:38;;;;;;;19.20;7.10;;;5.50;99.90;;;;;;7376650;19;20234;-73
2023/11/26 08:28:08;;;;;;;20.88;7.30;;;5.50;99.90;;;;;;7376746;19;20011;-74
2023/11/26 08:30:42;;;;;;;44.53;9.60;;;5.60;99.90;;;;;;7401324;19;20017;-75
2023/11/26 08:33:12;;;;;;;24.38;7.72;;;5.60;99.90;;;;;;7383152;19;20007;-75
2023/11/26 08:35:43;;;;;;;19.20;8.88;;;5.60;99.90;;;;;;7382526;19;20002;-74
2023/11/26 08:38:13;;;;;;;18.67;7.90;;;5.70;99.90;;;;;;7384176;19;20063;-75
2023/11/26 08:40:42;;;;;;;23.50;9.20;;;5.70;99.90;;;;;;7383312;19;20075;-73
2023/11/26 08:43:14;;;;;;;23.92;8.43;;;5.70;99.90;;;;;;7383106;19;20015;-75
2023/11/26 08:45:44;;;;;;;24.83;9.35;;;5.80;99.90;;;;;;7405125;19;20007;-75
2023/11/26 08:48:14;;;;;;;19.35;9.05;;;5.80;99.90;;;;;;7380122;19;20006;-75
2023/11/26 08:50:46;;;;;;;20.55;9.50;;;5.90;99.90;;;;;;7382729;19;20573;-75
2023/11/26 08:53:18;;;;;;;19.02;8.57;;;6.00;99.90;;;;;;7382776;19;20110;-75
2023/11/26 08:55:47;;;;;;;21.52;10.65;;;6.00;99.90;;;;;;7383085;19;20060;-74
2023/11/26 08:58:15;;;;;;;32.42;9.88;;;6.10;99.90;;;;;;7383482;19;20015;-75
2023/11/26 09:00:44;;;;;;;24.02;9.93;;;6.20;99.90;;;;;;7405461;19;20070;-74
2023/11/26 09:03:13;;;;;;;22.02;9.50;;;6.20;99.90;;;;;;7382181;19;20007;-75
2023/11/26 09:05:44;;;;;;;26.58;11.25;;;6.20;99.90;;;;;;7382181;19;20291;-75
2023/11/26 09:08:13;;;;;;;28.73;11.85;;;6.20;99.90;;;;;;7383538;19;20015;-75
2023/11/26 09:10:42;;;;;;;26.33;10.80;;;6.30;99.90;;;;;;7388213;19;20024;-75
2023/11/26 09:13:12;;;;;;;31.42;11.45;;;6.30;99.90;;;;;;7389570;19;20127;-75
2023/11/26 09:15:41;;;;;;;28.92;12.02;;;6.30;99.90;;;;;;7412395;19;20099;-75
2023/11/26 09:18:10;;;;;;;25.15;9.68;;;6.30;99.90;;;;;;7387993;19;20013;-75
2023/11/26 09:20:39;;;;;;;31.38;11.20;;;6.40;99.90;;;;;;7385673;19;20010;-75
2023/11/26 09:23:10;;;;;;;25.00;9.20;;;6.40;99.90;;;;;;7381876;19;20007;-75
2023/11/26 09:25:39;;;;;;;19.67;9.13;;;6.50;99.90;;;;;;7381896;19;20010;-75
2023/11/26 09:28:09;;;;;;;21.25;9.50;;;6.50;99.90;;;;;;7381601;19;20041;-75
2023/11/26 09:30:38;;;;;;;23.33;9.40;;;6.60;99.90;;;;;;7403424;19;20034;-75
2023/11/26 09:33:06;;;;;;;24.92;10.95;;;6.60;99.90;;;;;;7380414;19;20007;-75
2023/11/26 09:35:35;;;;;;;36.35;10.15;;;6.60;99.90;;;;;;7381107;19;20007;-74
2023/11/26 09:38:04;;;;;;;22.95;10.35;;;6.70;99.90;;;;;;7381212;19;20015;-75
2023/11/26 09:40:35;;;;;;;27.83;10.50;;;6.70;99.90;;;;;;7381393;19;20022;-75
2023/11/26 09:43:05;;;;;;;27.95;9.77;;;6.70;99.90;;;;;;7376877;19;20013;-75
2023/11/26 09:45:34;;;;;;;24.52;9.85;;;6.70;99.90;;;;;;7402799;19;20111;-74
2023/11/26 09:48:03;;;;;;;23.67;8.75;;;6.80;99.90;;;;;;7378947;19;20142;-75
2023/11/26 09:50:31;;;;;;;19.58;9.13;;;6.80;99.90;;;;;;7380530;19;20215;-75
2023/11/26 09:53:02;;;;;;;17.13;8.95;;;6.90;99.90;;;;;;7381339;19;20031;-75
2023/11/26 09:55:36;;;;;;;24.50;8.90;;;7.00;99.90;;;;;;7380973;19;20009;-74
2023/11/26 09:58:07;;;;;;;21.38;8.75;;;7.00;99.90;;;;;;7381209;19;20035;-74
2023/11/26 10:00:41;;;;;;;16.70;7.95;;;7.10;99.90;;;;;;7402046;19;20003;-74
2023/11/26 10:03:09;;;;;;;21.55;8.10;;;7.20;99.90;;;;;;7379436;19;19999;-74
2023/11/26 10:05:39;;;;;;;24.17;8.35;;;7.20;99.90;;;;;;7379526;19;20010;-74
2023/11/26 10:08:08;;;;;;;19.70;8.35;;;7.20;99.90;;;;;;7381339;19;20110;-76
2023/11/26 10:10:51;;;;;;;18.58;8.35;;;7.20;99.90;;;;;;7380155;19;20010;-74
2023/11/26 10:13:24;;;;;;;20.42;8.70;;;7.30;99.90;;;;;;7380420;19;20010;-75
2023/11/26 10:15:53;;;;;;;15.63;7.60;;;7.30;99.90;;;;;;7380165;19;20348;-75
2023/11/26 10:18:22;;;;;;;22.75;8.38;;;7.40;99.90;;;;;;7401358;19;20003;-75
2023/11/26 10:20:54;;;;;;;19.40;7.93;;;7.40;99.90;;;;;;7378894;19;20010;-76
2023/11/26 10:23:35;;;;;;;21.38;7.90;;;7.50;99.90;;;;;;7379043;19;20245;-75
2023/11/26 10:26:06;;;;;;;19.85;7.25;;;7.50;99.90;;;;;;7379960;19;20003;-75
2023/11/26 10:28:37;;;;;;;18.83;7.03;;;7.50;99.90;;;;;;7380138;19;20006;-75
2023/11/26 10:31:08;;;;;;;14.85;6.68;;;7.60;99.90;;;;;;7379682;19;20046;-76
2023/11/26 10:33:37;;;;;;;22.38;8.18;;;7.60;99.90;;;;;;7401675;19;20013;-74
2023/11/26 10:36:07;;;;;;;24.42;9.18;;;7.60;99.90;;;;;;7379090;19;20007;-74
2023/11/26 10:38:37;;;;;;;15.57;8.20;;;7.60;99.90;;;;;;7379716;19;20006;-76
2023/11/26 10:41:07;;;;;;;25.83;9.20;;;7.70;99.90;;;;;;7379178;19;20010;-75
2023/11/26 10:43:39;;;;;;;23.98;9.82;;;7.70;99.90;;;;;;7378175;19;20050;-75
2023/11/26 10:46:09;;;;;;;23.92;9.63;;;7.70;99.90;;;;;;7378455;19;20357;-75
2023/11/26 10:48:41;;;;;;;25.05;10.30;;;7.80;99.90;;;;;;7399971;19;20041;-75
2023/11/26 10:51:19;;;;;;;34.17;11.05;;;7.90;99.90;;;;;;7378572;19;20260;-76
2023/11/26 10:53:57;;;;;;;36.10;17.77;;;7.90;99.90;;;;;;7376770;19;20078;-74
2023/11/26 10:56:37;;;;;;;34.58;15.40;;;8.00;99.90;;;;;;7377509;19;20593;-75
2023/11/26 10:59:10;;;;;;;28.20;12.77;;;8.00;99.90;;;;;;7378491;19;19998;-76
2023/11/26 11:01:40;;;;;;;18.02;7.93;;;8.10;99.90;;;;;;7377481;19;20019;-75
2023/11/26 11:04:15;;;;;;;20.33;8.32;;;8.10;99.90;;;;;;7379440;19;20127;-75
2023/11/26 11:06:44;;;;;;;18.92;8.25;;;8.10;99.90;;;;;;7399129;19;20354;-75
2023/11/26 11:09:17;;;;;;;24.08;7.43;;;8.20;99.90;;;;;;7383174;19;20227;-75
2023/11/26 11:11:58;;;;;;;17.77;7.90;;;8.20;99.90;;;;;;7378551;19;20054;-74
2023/11/26 11:14:31;;;;;;;21.80;8.40;;;8.30;99.90;;;;;;7379721;19;20031;-74
2023/11/26 11:17:00;;;;;;;15.55;7.35;;;8.30;99.90;;;;;;7380562;19;20528;-75
2023/11/26 11:19:51;;;;;;;24.42;7.95;;;8.40;99.90;;;;;;7380299;19;20072;-74
2023/11/26 11:22:19;;;;;;;16.40;7.40;;;8.40;99.90;;;;;;7382415;19;20007;-76
2023/11/26 11:24:48;;;;;;;25.52;7.90;;;8.40;99.90;;;;;;7411356;19;20484;-74
2023/11/26 11:27:17;;;;;;;21.13;7.15;;;8.50;99.90;;;;;;7386576;19;20011;-74
2023/11/26 11:29:48;;;;;;;22.55;8.18;;;8.50;99.90;;;;;;7390661;19;20027;-74
2023/11/26 11:32:17;;;;;;;31.27;13.57;;;8.60;99.90;;;;;;7385782;19;20003;-73
2023/11/26 11:34:46;;;;;;;36.05;13.63;;;8.70;99.90;;;;;;7388448;19;20014;-74
2023/11/26 11:37:15;;;;;;;25.65;10.93;;;8.70;99.90;;;;;;7383803;19;20331;-75
2023/11/26 11:39:50;;;;;;;14.63;6.28;;;8.70;99.90;;;;;;7405278;19;20028;-75
2023/11/26 11:42:25;;;;;;;18.75;5.78;;;8.80;99.90;;;;;;7383535;19;20013;-76
2023/11/26 11:44:59;;;;;;;12.30;4.28;;;8.80;99.90;;;;;;7383099;19;20070;-74
2023/11/26 11:47:44;;;;;;;11.45;5.05;;;8.90;99.90;;;;;;7382233;19;20006;-77
2023/11/26 11:50:14;;;;;;;10.93;3.95;;;8.90;99.90;;;;;;7381666;19;20006;-78
2023/11/26 11:52:43;;;;;;;7.73;2.47;;;8.90;99.90;;;;;;7383043;19;20202;-78
2023/11/26 11:55:37;;;;;;;6.70;2.90;;;8.80;99.90;;;;;;7383745;19;20032;-78
2023/11/26 11:58:14;;;;;;;12.27;2.80;;;8.80;99.90;;;;;;7383496;19;20028;-75
2023/11/26 12:01:23;;;;;;;6.28;2.60;;;8.70;99.90;;;;;;7407399;19;20017;-82
2023/11/26 12:04:04;;;;;;;7.47;2.63;;;8.70;99.90;;;;;;7284118;19;2004739;-81
2023/11/26 12:06:33;;;;;;;9.77;2.90;;;8.70;99.90;;;;;;7416256;19;20017;-78
2023/11/26 12:09:05;;;;;;;9.90;2.90;;;8.70;99.90;;;;;;7395123;19;20358;-77
2023/11/26 12:11:34;;;;;;;7.20;2.97;;;8.80;99.90;;;;;;7394488;19;20015;-78
2023/11/26 12:14:03;;;;;;;9.27;3.13;;;8.80;99.90;;;;;;7392654;19;20007;-78
2023/11/26 12:16:34;;;;;;;17.70;5.35;;;8.90;99.90;;;;;;7393613;19;20009;-76
2023/11/26 12:19:08;;;;;;;7.65;3.00;;;8.90;99.90;;;;;;7392989;19;20014;-81
2023/11/26 12:21:36;;;;;;;9.70;2.88;;;8.90;99.90;;;;;;7413675;19;20006;-75
2023/11/26 12:24:20;;;;;;;6.97;2.85;;;8.90;99.90;;;;;;7389990;19;20023;-75
2023/11/26 12:26:49;;;;;;;11.32;2.60;;;8.80;99.90;;;;;;7389956;19;20336;-78
2023/11/26 12:29:25;;;;;;;8.57;2.78;;;8.90;99.90;;;;;;7390071;19;20011;-76
2023/11/26 12:32:05;;;;;;;10.02;2.47;;;8.90;99.90;;;;;;7389500;19;20020;-77
2023/11/26 12:34:39;;;;;;;12.73;2.72;;;9.00;99.90;;;;;;7391976;19;20026;-75
2023/11/26 12:37:09;;;;;;;3.10;1.80;;;8.80;99.90;;;;;;7390990;19;20070;-77
2023/11/26 12:39:39;;;;;;;12.30;3.17;;;8.90;99.90;;;;;;7411730;19;20006;-73
2023/11/26 12:42:09;;;;;;;10.43;2.63;;;9.00;99.90;;;;;;7389673;19;20358;-76
2023/11/26 12:44:38;;;;;;;11.57;2.63;;;9.10;99.90;;;;;;7389319;19;20024;-73
2023/11/26 12:47:12;;;;;;;8.05;2.25;;;9.10;99.90;;;;;;7387991;19;20011;-75
2023/11/26 12:49:41;;;;;;;9.35;2.55;;;9.10;99.90;;;;;;7389859;19;20014;-75
2023/11/26 12:52:11;;;;;;;11.93;2.60;;;8.80;99.90;;;;;;7388863;19;19998;-73
2023/11/26 12:54:42;;;;;;;16.00;4.10;;;8.90;99.90;;;;;;7411662;19;20010;-75
2023/11/26 12:57:10;;;;;;;10.38;2.83;;;9.00;99.90;;;;;;7388425;19;20010;-75
2023/11/26 13:00:08;;;;;;;;;;;;;;;;;;;;;
2023/11/26 13:02:40;;;;;;;12.55;3.60;;;9.20;99.90;;;;;;7387397;19;20007;-79
2023/11/26 13:05:29;;;;;;;;;;;9.30;99.90;;;;;;7412031;19;20015;-78
2023/11/26 13:07:58;;;;;;;7.38;2.88;;;9.40;99.90;;;;;;7387138;19;19917;-75